HOURLY OBS INDEX

096

Central Plateau

BUTLERS GORGE

Site: 096003
Alt: 667.0m
16km SSE of DERWENT BRIDGE


  Time     Wind        Temp  DP   Baro     Rain since   Rain past  Vis(m), Cloud(base in m), Weather
  local        km/h                         9am  last   hr   10m    
Sun 17:00  NNW  6/ 11   6.3  3.3  ------    0.4   0.0   0.2   0.0   ----- 
Sun 17:30  NNW  9/ 15   6.0  3.3  ------    0.4   0.0   0.0   0.0   ----- 
Sun 18:00    N  7/ 11   5.4  3.4  ------    0.4   0.0   0.0   0.0   ----- 
Sun 18:30   NW  6/ 13   5.9  3.4  ------    0.4   0.0   0.0   0.0   ----- 
Sun 19:00    W  6/ 15   5.4  3.9  ------    0.4   0.0   0.0   0.0   ----- 
Sun 19:30   NW  7/ 11   5.2  2.7  ------    0.6   0.2   0.2   0.0   ----- 
Sun 20:00   NW  9/ 17   5.5  2.8  ------    0.6   0.0   0.2   0.0   ----- 
Sun 20:30  WNW 13/ 22   5.7  2.5  ------    0.6   0.0   0.0   0.0   ----- 
Sun 21:00  WNW 11/ 20   5.8  2.4  ------    0.6   0.0   0.0   0.0   ----- 
Sun 21:30   NW 11/ 22   5.4  2.9  ------    0.6   0.0   0.0   0.0   ----- 
Sun 22:00   NW 13/ 24   5.5  2.8  ------    0.6   0.0   0.0   0.0   ----- 

LIAWENEE

Site: 096033
Alt: 1057.0m
42km S of DELORAINE


  Time     Wind        Temp  DP   Baro     Rain since   Rain past  Vis(m), Cloud(base in m), Weather
  local        km/h                         9am  last   hr   10m    
Sun 17:00   SW 28/ 39   4.0----  1020.7    0.0   0.0   0.0   0.0   ----- 
Sun 17:30  WSW 24/ 37   3.6----  1020.7    0.0   0.0   0.0   0.0   ----- 
Sun 18:00   SW 22/ 32   3.7----  1021.1    0.0   0.0   0.0   0.0   ----- 
Sun 18:30   SW 24/ 30   3.5----  1021.4    0.0   0.0   0.0   0.0   ----- 
Sun 19:00   SW 28/ 39   3.3----  1021.8    0.0   0.0   0.0   0.0   ----- 
Sun 19:30  WSW 22/ 35   3.0----  1021.7    0.0   0.0   0.0   0.0   ----- 
Sun 20:00  WSW 26/ 37   3.1----  1022.1    0.0   0.0   0.0   0.0   ----- 
Sun 20:30  WSW 26/ 32   2.7----  1021.8    0.0   0.0   0.0   0.0   ----- 
Sun 21:00   SW 26/ 35   2.8----  1022.3    0.0   0.0   0.0   0.0   ----- 
Sun 21:30   SW 26/ 35   2.7----  1022.5    0.0   0.0   0.0   0.0   ----- 
Sun 22:00   SW 32/ 41   2.8----  1022.5    0.0   0.0   0.0   0.0   -----